createdAt,value
2018-01-25T00:00:36.218Z,22.1
2018-01-25T00:01:36.203Z,22.1
2018-01-25T00:02:36.186Z,22.2
2018-01-25T00:03:35.986Z,22.3
2018-01-25T00:04:35.936Z,22.3
2018-01-25T00:05:35.954Z,22.4
2018-01-25T00:06:35.854Z,22.4
2018-01-25T00:07:36.019Z,22.4
2018-01-25T00:08:35.640Z,22.4
2018-01-25T00:09:35.587Z,22.5
2018-01-25T00:10:35.490Z,22.5
2018-01-25T00:11:35.454Z,22.6
2018-01-25T00:12:35.354Z,22.6
2018-01-25T00:13:35.303Z,22.6
2018-01-25T00:14:35.242Z,22.6
2018-01-25T00:15:35.173Z,22.7
2018-01-25T00:16:35.087Z,22.8
2018-01-25T00:17:35.153Z,22.9
2018-01-25T00:18:34.936Z,23
2018-01-25T00:19:34.902Z,22.9
2018-01-25T00:20:34.796Z,22.9
2018-01-25T00:21:34.860Z,22.9
2018-01-25T00:22:34.693Z,23
2018-01-25T00:23:34.591Z,23.1
2018-01-25T00:24:34.657Z,22.8
2018-01-25T00:25:34.469Z,22.6
2018-01-25T00:26:34.524Z,22.4
2018-01-25T00:27:34.331Z,22.3
2018-01-25T00:28:34.279Z,22.1
2018-01-25T00:29:34.185Z,22
2018-01-25T00:30:34.135Z,21.9
2018-01-25T00:31:34.037Z,21.8
2018-01-25T00:32:34.002Z,21.6
2018-01-25T00:33:33.899Z,21.6
2018-01-25T00:34:33.985Z,21.5
2018-01-25T00:35:33.772Z,21.5
2018-01-25T00:36:33.719Z,21.5
2018-01-25T00:37:33.645Z,21.6
2018-01-25T00:38:33.669Z,21.6
2018-01-25T00:39:33.512Z,21.6
2018-01-25T00:40:33.534Z,21.6
2018-01-25T00:41:33.480Z,21.6
2018-01-25T00:42:33.362Z,21.6
2018-01-25T00:43:33.240Z,21.6
2018-01-25T00:44:33.172Z,21.6
2018-01-25T00:45:33.086Z,21.6
2018-01-25T00:46:33.110Z,21.7
2018-01-25T00:47:33.065Z,21.8
2018-01-25T00:48:32.972Z,21.8
2018-01-25T00:49:32.826Z,21.9
2018-01-25T00:50:32.718Z,21.9
2018-01-25T00:51:32.786Z,22
2018-01-25T00:52:32.594Z,22.1
2018-01-25T00:53:32.577Z,22.1
2018-01-25T00:54:32.480Z,22.1
2018-01-25T00:55:32.465Z,22.1
2018-01-25T00:56:32.340Z,22.1
2018-01-25T00:57:32.248Z,22.2
2018-01-25T00:58:32.197Z,22.2
2018-01-25T00:59:32.208Z,22.2
2018-01-25T01:00:32.062Z,22.1
2018-01-25T01:01:31.981Z,21.8
2018-01-25T01:02:31.888Z,21.7
2018-01-25T01:03:31.851Z,21.6
2018-01-25T01:04:31.764Z,21.6
2018-01-25T01:05:31.826Z,21.6
2018-01-25T01:06:31.611Z,21.6
2018-01-25T01:07:31.573Z,21.8
2018-01-25T01:08:31.587Z,21.9
2018-01-25T01:09:31.725Z,21.9
2018-01-25T01:10:31.479Z,22.1
2018-01-25T01:11:31.267Z,22.2
2018-01-25T01:12:31.285Z,22.3
2018-01-25T01:13:31.166Z,22.4
2018-01-25T01:14:31.077Z,22.5
2018-01-25T01:15:31.018Z,22.6
2018-01-25T01:16:31.041Z,22.6
2018-01-25T01:17:30.862Z,22.8
2018-01-25T01:18:39.922Z,22.8
2018-01-25T01:19:39.862Z,22.9
2018-01-25T01:20:39.700Z,22.8
2018-01-25T01:21:39.682Z,22.7
2018-01-25T01:22:39.659Z,22.6
2018-01-25T01:23:39.437Z,22.5
2018-01-25T01:24:39.501Z,22.4
2018-01-25T01:25:39.303Z,22.3
2018-01-25T01:26:39.235Z,22.1
2018-01-25T01:27:39.215Z,22.1
2018-01-25T01:28:39.180Z,21.9
2018-01-25T01:29:38.982Z,21.8
2018-01-25T01:30:38.918Z,21.8
2018-01-25T01:31:38.820Z,21.7
2018-01-25T01:32:38.872Z,21.7
2018-01-25T01:33:38.949Z,21.7
2018-01-25T01:34:38.683Z,21.7
2018-01-25T01:35:38.815Z,21.6
2018-01-25T01:36:38.415Z,21.7
2018-01-25T01:37:38.479Z,21.7
2018-01-25T01:38:38.348Z,21.7
2018-01-25T01:39:38.207Z,21.8
2018-01-25T01:40:38.114Z,21.8
2018-01-25T01:41:38.149Z,21.9
2018-01-25T01:42:37.941Z,22
2018-01-25T01:43:38.012Z,22.1
2018-01-25T01:44:37.784Z,22.1
2018-01-25T01:45:37.852Z,22.2
2018-01-25T01:46:37.646Z,22.3
2018-01-25T01:47:37.686Z,22.3
2018-01-25T01:48:37.473Z,22.3
2018-01-25T01:49:37.415Z,22.4
2018-01-25T01:50:37.647Z,22.4
2018-01-25T01:51:37.250Z,22.4
2018-01-25T01:52:37.294Z,22.4
2018-01-25T01:53:37.076Z,22.4
2018-01-25T01:54:37.082Z,22.4
2018-01-25T01:55:37.206Z,22.4
2018-01-25T01:56:36.984Z,22.4
2018-01-25T01:57:36.887Z,22.5
2018-01-25T01:58:36.697Z,22.6
2018-01-25T01:59:36.635Z,22.6
2018-01-25T02:00:36.806Z,22.6
2018-01-25T02:01:36.486Z,22.7
2018-01-25T02:02:36.485Z,22.8
2018-01-25T02:03:36.427Z,22.9
2018-01-25T02:04:36.212Z,22.9
2018-01-25T02:05:36.146Z,22.9
2018-01-25T02:06:36.093Z,22.9
2018-01-25T02:07:35.993Z,22.9
2018-01-25T02:08:35.926Z,23
2018-01-25T02:09:36.148Z,22.8
2018-01-25T02:10:35.754Z,22.5
2018-01-25T02:11:35.699Z,22.4
2018-01-25T02:12:35.583Z,22.3
2018-01-25T02:13:35.518Z,22.2
2018-01-25T02:14:35.467Z,22.1
2018-01-25T02:15:35.367Z,21.9
2018-01-25T02:16:35.310Z,21.8
2018-01-25T02:17:35.279Z,21.7
2018-01-25T02:18:35.253Z,21.7
2018-01-25T02:19:35.148Z,21.6
2018-01-25T02:20:34.984Z,21.6
2018-01-25T02:21:34.904Z,21.6
2018-01-25T02:22:34.796Z,21.6
2018-01-25T02:23:34.835Z,21.6
2018-01-25T02:24:34.670Z,21.6
2018-01-25T02:25:34.651Z,21.6
2018-01-25T02:26:34.626Z,21.6
2018-01-25T02:27:34.403Z,21.7
2018-01-25T02:28:34.362Z,21.7
2018-01-25T02:29:34.270Z,21.8
2018-01-25T02:30:34.168Z,21.8
2018-01-25T02:31:34.126Z,21.9
2018-01-25T02:32:34.025Z,22
2018-01-25T02:33:33.966Z,22
2018-01-25T02:34:33.873Z,22.1
2018-01-25T02:35:33.912Z,22.2
2018-01-25T02:36:33.785Z,22.3
2018-01-25T02:37:33.966Z,22.3
2018-01-25T02:38:33.540Z,22.3
2018-01-25T02:39:33.791Z,22.4
2018-01-25T02:40:33.395Z,22.4
2018-01-25T02:41:33.333Z,22.4
2018-01-25T02:42:33.539Z,22.4
2018-01-25T02:43:33.183Z,22.4
2018-01-25T02:44:33.157Z,22.5
2018-01-25T02:45:33.114Z,22.6
2018-01-25T02:46:33.058Z,22.6
2018-01-25T02:47:32.830Z,22.6
2018-01-25T02:48:32.788Z,22.7
2018-01-25T02:49:32.977Z,22.8
2018-01-25T02:50:32.625Z,22.9
2018-01-25T02:51:32.829Z,23.1
2018-01-25T02:52:32.472Z,23
2018-01-25T02:53:32.385Z,22.9
2018-01-25T02:54:32.282Z,23.1
2018-01-25T02:55:32.347Z,23.1
2018-01-25T02:56:32.123Z,23.1
2018-01-25T02:57:32.075Z,22.8
2018-01-25T02:58:31.979Z,22.6
2018-01-25T02:59:31.922Z,22.4
2018-01-25T03:00:31.809Z,22.3
2018-01-25T03:01:32.053Z,22.2
2018-01-25T03:02:31.679Z,22.1
2018-01-25T03:03:31.683Z,21.9
2018-01-25T03:04:31.636Z,21.9
2018-01-25T03:05:31.502Z,21.8
2018-01-25T03:06:31.338Z,21.7
2018-01-25T03:07:31.291Z,21.7
2018-01-25T03:08:31.193Z,21.6
2018-01-25T03:09:31.226Z,21.6
2018-01-25T03:10:31.053Z,21.6
2018-01-25T03:11:30.945Z,21.6
2018-01-25T03:12:31.011Z,21.5
2018-01-25T03:13:30.801Z,21.5
2018-01-25T03:14:30.840Z,21.6
2018-01-25T03:16:30.640Z,21.7
2018-01-25T03:17:30.508Z,21.7
2018-01-25T03:18:30.413Z,21.8
2018-01-25T03:19:30.426Z,21.9
2018-01-25T03:20:30.268Z,21.9
2018-01-25T03:21:30.247Z,22
2018-01-25T03:22:30.113Z,22.1
2018-01-25T03:23:30.014Z,22.1
2018-01-25T03:24:30.056Z,22.1
2018-01-25T03:25:29.861Z,22.2
2018-01-25T03:26:29.775Z,22.2
2018-01-25T03:27:29.724Z,22.3
2018-01-25T03:28:29.718Z,22.3
2018-01-25T03:29:29.666Z,22.3
2018-01-25T03:30:29.450Z,22.4
2018-01-25T03:31:29.405Z,22.4
2018-01-25T03:32:29.289Z,22.4
2018-01-25T03:33:29.248Z,22.4
2018-01-25T03:34:29.456Z,22.5
2018-01-25T03:35:29.086Z,22.5
2018-01-25T03:36:29.089Z,22.6
2018-01-25T03:37:28.934Z,22.6
2018-01-25T03:38:28.910Z,22.7
2018-01-25T03:39:28.884Z,22.8
2018-01-25T03:40:28.666Z,22.9
2018-01-25T03:41:28.614Z,23
2018-01-25T03:42:28.638Z,22.9
2018-01-25T03:43:28.516Z,22.8
2018-01-25T03:44:28.491Z,22.9
2018-01-25T03:45:28.381Z,22.9
2018-01-25T03:46:28.220Z,23
2018-01-25T03:47:28.125Z,22.8
2018-01-25T03:48:28.072Z,22.5
2018-01-25T03:49:27.958Z,22.4
2018-01-25T03:50:27.897Z,22.3
2018-01-25T03:51:27.829Z,22.1
2018-01-25T03:52:27.831Z,22
2018-01-25T03:53:27.671Z,21.9
2018-01-25T03:54:27.673Z,21.8
2018-01-25T03:55:27.518Z,21.8
2018-01-25T03:56:27.493Z,21.7
2018-01-25T03:57:27.404Z,21.7
2018-01-25T03:58:27.379Z,21.8
2018-01-25T03:59:27.258Z,21.7
2018-01-25T04:00:27.231Z,21.6
2018-01-25T04:01:27.100Z,21.7
2018-01-25T04:02:26.962Z,21.7
2018-01-25T04:03:26.874Z,21.7
2018-01-25T04:04:26.889Z,21.7
2018-01-25T04:05:26.728Z,21.8
2018-01-25T04:06:26.638Z,21.8
2018-01-25T04:07:26.538Z,21.9
2018-01-25T04:08:26.498Z,21.9
2018-01-25T04:09:26.493Z,22
2018-01-25T04:10:26.332Z,22
2018-01-25T04:11:26.223Z,22.1
2018-01-25T04:12:26.181Z,22.1
2018-01-25T04:13:26.080Z,22.2
2018-01-25T04:14:26.013Z,22.2
2018-01-25T04:15:26.045Z,22.3
2018-01-25T04:16:25.829Z,22.3
2018-01-25T04:17:25.791Z,22.3
2018-01-25T04:18:25.702Z,22.3
2018-01-25T04:19:25.611Z,22.4
2018-01-25T04:20:25.550Z,22.4
2018-01-25T04:21:25.526Z,22.4
2018-01-25T04:22:25.372Z,22.5
2018-01-25T04:23:25.595Z,22.6
2018-01-25T04:24:25.215Z,22.5
2018-01-25T04:25:25.156Z,22.6
2018-01-25T04:26:25.043Z,22.6
2018-01-25T04:27:24.994Z,22.6
2018-01-25T04:28:24.905Z,22.7
2018-01-25T04:29:24.944Z,22.8
2018-01-25T04:30:24.752Z,22.9
2018-01-25T04:31:24.650Z,22.9
2018-01-25T04:32:24.661Z,22.8
2018-01-25T04:33:24.526Z,22.8
2018-01-25T04:34:24.527Z,22.9
2018-01-25T04:35:24.471Z,22.9
2018-01-25T04:36:24.271Z,22.8
2018-01-25T04:37:24.205Z,22.6
2018-01-25T04:38:24.122Z,22.4
2018-01-25T04:39:24.033Z,22.3
2018-01-25T04:40:23.970Z,22.1
2018-01-25T04:41:23.952Z,22.1
2018-01-25T04:42:23.817Z,21.9
2018-01-25T04:43:23.706Z,21.8
2018-01-25T04:44:23.769Z,21.6
2018-01-25T04:45:23.562Z,21.6
2018-01-25T04:46:23.487Z,21.5
2018-01-25T04:47:23.526Z,21.4
2018-01-25T04:48:23.313Z,21.6
2018-01-25T04:49:23.272Z,21.5
2018-01-25T04:50:23.154Z,21.5
2018-01-25T04:51:23.217Z,21.6
2018-01-25T04:52:23.009Z,21.6
2018-01-25T04:53:22.947Z,21.6
2018-01-25T04:54:22.949Z,21.6
2018-01-25T04:55:22.778Z,21.6
2018-01-25T04:56:23.010Z,21.6
2018-01-25T04:57:22.719Z,21.8
2018-01-25T04:58:22.553Z,21.8
2018-01-25T04:59:22.586Z,21.8
2018-01-25T05:00:22.512Z,21.8
2018-01-25T05:01:22.432Z,21.9
2018-01-25T05:02:22.508Z,22
2018-01-25T05:03:22.243Z,22.1
2018-01-25T05:04:22.390Z,22.1
2018-01-25T05:05:21.988Z,22.2
2018-01-25T05:06:21.933Z,22.3
2018-01-25T05:07:21.907Z,22.3
2018-01-25T05:08:21.771Z,22.3
2018-01-25T05:09:21.678Z,22.3
2018-01-25T05:10:21.597Z,22.3
2018-01-25T05:11:21.543Z,22.4
2018-01-25T05:12:21.427Z,22.4
2018-01-25T05:13:21.664Z,22.4
2018-01-25T05:14:21.286Z,22.5
2018-01-25T05:15:21.191Z,22.5
2018-01-25T05:16:21.257Z,22.6
2018-01-25T05:17:21.332Z,22.6
2018-01-25T05:18:20.983Z,22.6
2018-01-25T05:19:20.905Z,22.6
2018-01-25T05:20:20.890Z,22.7
2018-01-25T05:21:20.862Z,22.7
2018-01-25T05:22:20.656Z,22.8
2018-01-25T05:23:20.893Z,22.9
2018-01-25T05:24:20.573Z,23
2018-01-25T05:25:20.441Z,23
2018-01-25T05:26:20.438Z,22.8
2018-01-25T05:27:20.362Z,22.8
2018-01-25T05:28:20.202Z,22.9
2018-01-25T05:29:20.119Z,22.9
2018-01-25T05:30:20.126Z,22.8
2018-01-25T05:31:19.969Z,22.5
2018-01-25T05:32:19.944Z,22.3
2018-01-25T05:33:19.930Z,22.3
2018-01-25T05:34:19.717Z,22.2
2018-01-25T05:35:19.633Z,22.2
2018-01-25T05:36:19.578Z,22.1
2018-01-25T05:37:19.467Z,21.9
2018-01-25T05:38:19.415Z,21.6
2018-01-25T05:39:19.419Z,21.3
2018-01-25T05:40:19.257Z,20.8
2018-01-25T05:42:21.764Z,20
2018-01-25T05:43:21.430Z,19.6
2018-01-25T05:44:21.341Z,19.1
2018-01-25T05:45:21.224Z,18.8
2018-01-25T05:46:21.185Z,18.3
2018-01-25T05:47:21.085Z,17.9
2018-01-25T05:48:21.128Z,17.9
2018-01-25T05:49:21.028Z,17.9
2018-01-25T05:50:20.870Z,18.8
2018-01-25T05:51:20.775Z,19.4
2018-01-25T05:52:20.694Z,19.7
2018-01-25T05:53:20.634Z,19.9
2018-01-25T05:54:20.849Z,20.3
2018-01-25T05:55:20.586Z,20.5
2018-01-25T05:56:20.363Z,20.8
2018-01-25T05:57:20.313Z,21.1
2018-01-25T05:58:20.318Z,21.3
2018-01-25T05:59:20.251Z,21.5
2018-01-25T06:00:20.048Z,21.7
2018-01-25T06:01:20.113Z,21.8
2018-01-25T06:02:19.892Z,22
2018-01-25T06:03:19.955Z,22.1
2018-01-25T06:04:19.848Z,22.2
2018-01-25T06:05:19.796Z,22.3
2018-01-25T06:06:19.579Z,22.4
2018-01-25T06:07:19.520Z,22.5
